sensor_id;sensor_type;location;lat;lon;timestamp;P1;durP1;ratioP1;P2;durP2;ratioP2
2404;SDS011;1213;43.206;27.922;2023-06-14T00:01:00;3.93;;;1.63;;
2404;SDS011;1213;43.206;27.922;2023-06-14T00:03:27;5.63;;;2.00;;
2404;SDS011;1213;43.206;27.922;2023-06-14T00:05:53;3.10;;;2.00;;
2404;SDS011;1213;43.206;27.922;2023-06-14T00:08:18;2.40;;;2.20;;
2404;SDS011;1213;43.206;27.922;2023-06-14T00:10:44;2.83;;;1.93;;
2404;SDS011;1213;43.206;27.922;2023-06-14T00:13:09;2.20;;;1.97;;
2404;SDS011;1213;43.206;27.922;2023-06-14T00:15:35;2.23;;;2.00;;
2404;SDS011;1213;43.206;27.922;2023-06-14T00:18:00;3.23;;;2.83;;
2404;SDS011;1213;43.206;27.922;2023-06-14T00:20:26;2.60;;;2.40;;
2404;SDS011;1213;43.206;27.922;2023-06-14T00:22:52;2.57;;;2.37;;
2404;SDS011;1213;43.206;27.922;2023-06-14T00:25:17;2.37;;;2.17;;
2404;SDS011;1213;43.206;27.922;2023-06-14T00:27:43;2.43;;;2.17;;
2404;SDS011;1213;43.206;27.922;2023-06-14T00:30:08;2.77;;;2.37;;
2404;SDS011;1213;43.206;27.922;2023-06-14T00:32:33;2.60;;;2.30;;
2404;SDS011;1213;43.206;27.922;2023-06-14T00:34:59;2.07;;;1.97;;
2404;SDS011;1213;43.206;27.922;2023-06-14T00:37:24;3.07;;;2.27;;
2404;SDS011;1213;43.206;27.922;2023-06-14T00:39:49;4.40;;;2.57;;
2404;SDS011;1213;43.206;27.922;2023-06-14T00:42:27;3.07;;;2.87;;
2404;SDS011;1213;43.206;27.922;2023-06-14T00:44:53;2.90;;;2.43;;
2404;SDS011;1213;43.206;27.922;2023-06-14T00:47:18;2.93;;;2.20;;
2404;SDS011;1213;43.206;27.922;2023-06-14T00:49:47;2.57;;;2.37;;
2404;SDS011;1213;43.206;27.922;2023-06-14T00:52:13;2.97;;;2.17;;
2404;SDS011;1213;43.206;27.922;2023-06-14T00:54:40;3.50;;;2.50;;
2404;SDS011;1213;43.206;27.922;2023-06-14T00:57:05;6.33;;;2.40;;
2404;SDS011;1213;43.206;27.922;2023-06-14T00:59:31;2.37;;;2.20;;
2404;SDS011;1213;43.206;27.922;2023-06-14T01:01:56;2.57;;;2.33;;
2404;SDS011;1213;43.206;27.922;2023-06-14T01:04:21;2.40;;;2.17;;
2404;SDS011;1213;43.206;27.922;2023-06-14T01:06:55;2.70;;;2.47;;
2404;SDS011;1213;43.206;27.922;2023-06-14T01:11:57;2.60;;;2.00;;
2404;SDS011;1213;43.206;27.922;2023-06-14T01:14:24;2.47;;;2.13;;
2404;SDS011;1213;43.206;27.922;2023-06-14T01:16:50;3.03;;;2.23;;
2404;SDS011;1213;43.206;27.922;2023-06-14T01:19:18;6.13;;;2.23;;
2404;SDS011;1213;43.206;27.922;2023-06-14T01:21:44;2.87;;;2.57;;
2404;SDS011;1213;43.206;27.922;2023-06-14T01:24:09;3.57;;;3.27;;
2404;SDS011;1213;43.206;27.922;2023-06-14T01:26:36;3.70;;;3.23;;
2404;SDS011;1213;43.206;27.922;2023-06-14T01:29:03;3.57;;;2.87;;
2404;SDS011;1213;43.206;27.922;2023-06-14T01:31:28;2.90;;;2.67;;
2404;SDS011;1213;43.206;27.922;2023-06-14T01:33:54;4.90;;;3.00;;
2404;SDS011;1213;43.206;27.922;2023-06-14T01:36:20;4.10;;;3.13;;
2404;SDS011;1213;43.206;27.922;2023-06-14T01:38:46;2.60;;;2.40;;
2404;SDS011;1213;43.206;27.922;2023-06-14T01:41:11;6.33;;;2.80;;
2404;SDS011;1213;43.206;27.922;2023-06-14T01:43:38;3.00;;;2.80;;
2404;SDS011;1213;43.206;27.922;2023-06-14T01:46:04;2.80;;;2.60;;
2404;SDS011;1213;43.206;27.922;2023-06-14T01:48:30;3.00;;;2.70;;
2404;SDS011;1213;43.206;27.922;2023-06-14T01:50:56;6.27;;;2.70;;
2404;SDS011;1213;43.206;27.922;2023-06-14T01:53:22;5.17;;;2.60;;
2404;SDS011;1213;43.206;27.922;2023-06-14T01:55:47;3.40;;;3.10;;
2404;SDS011;1213;43.206;27.922;2023-06-14T01:58:13;5.67;;;2.73;;
2404;SDS011;1213;43.206;27.922;2023-06-14T02:00:39;3.00;;;2.70;;
2404;SDS011;1213;43.206;27.922;2023-06-14T02:03:05;4.60;;;2.90;;
2404;SDS011;1213;43.206;27.922;2023-06-14T02:05:30;3.33;;;2.37;;
2404;SDS011;1213;43.206;27.922;2023-06-14T02:07:56;4.17;;;2.27;;
2404;SDS011;1213;43.206;27.922;2023-06-14T02:10:21;3.30;;;3.00;;
2404;SDS011;1213;43.206;27.922;2023-06-14T02:12:46;3.50;;;2.80;;
2404;SDS011;1213;43.206;27.922;2023-06-14T02:15:12;3.83;;;3.40;;
2404;SDS011;1213;43.206;27.922;2023-06-14T02:17:44;4.50;;;3.60;;
2404;SDS011;1213;43.206;27.922;2023-06-14T02:20:10;4.90;;;3.90;;
2404;SDS011;1213;43.206;27.922;2023-06-14T02:22:36;7.17;;;5.03;;
2404;SDS011;1213;43.206;27.922;2023-06-14T02:25:01;9.97;;;4.40;;
2404;SDS011;1213;43.206;27.922;2023-06-14T02:27:26;6.60;;;3.93;;
2404;SDS011;1213;43.206;27.922;2023-06-14T02:29:52;5.77;;;4.20;;
2404;SDS011;1213;43.206;27.922;2023-06-14T02:32:17;5.30;;;3.73;;
2404;SDS011;1213;43.206;27.922;2023-06-14T02:34:42;5.63;;;5.10;;
2404;SDS011;1213;43.206;27.922;2023-06-14T02:37:07;4.77;;;4.27;;
2404;SDS011;1213;43.206;27.922;2023-06-14T02:39:33;6.30;;;4.57;;
2404;SDS011;1213;43.206;27.922;2023-06-14T02:41:58;8.73;;;4.20;;
2404;SDS011;1213;43.206;27.922;2023-06-14T02:44:24;5.00;;;3.63;;
2404;SDS011;1213;43.206;27.922;2023-06-14T02:46:50;6.27;;;4.30;;
2404;SDS011;1213;43.206;27.922;2023-06-14T02:49:16;5.77;;;4.37;;
2404;SDS011;1213;43.206;27.922;2023-06-14T02:51:41;7.13;;;4.60;;
2404;SDS011;1213;43.206;27.922;2023-06-14T02:54:06;5.30;;;4.30;;
2404;SDS011;1213;43.206;27.922;2023-06-14T02:56:32;8.90;;;4.07;;
2404;SDS011;1213;43.206;27.922;2023-06-14T02:58:57;5.07;;;3.53;;
2404;SDS011;1213;43.206;27.922;2023-06-14T03:01:25;5.33;;;3.87;;
2404;SDS011;1213;43.206;27.922;2023-06-14T03:03:51;5.23;;;3.90;;
2404;SDS011;1213;43.206;27.922;2023-06-14T03:06:16;4.67;;;4.17;;
2404;SDS011;1213;43.206;27.922;2023-06-14T03:08:41;4.90;;;4.50;;
2404;SDS011;1213;43.206;27.922;2023-06-14T03:11:07;6.67;;;3.60;;
2404;SDS011;1213;43.206;27.922;2023-06-14T03:13:33;5.90;;;3.77;;
2404;SDS011;1213;43.206;27.922;2023-06-14T03:15:58;4.30;;;3.53;;
2404;SDS011;1213;43.206;27.922;2023-06-14T03:18:27;13.70;;;4.90;;
2404;SDS011;1213;43.206;27.922;2023-06-14T03:20:52;7.50;;;5.10;;
2404;SDS011;1213;43.206;27.922;2023-06-14T03:23:19;6.40;;;4.70;;
2404;SDS011;1213;43.206;27.922;2023-06-14T03:25:44;8.00;;;5.40;;
2404;SDS011;1213;43.206;27.922;2023-06-14T03:28:10;5.97;;;5.33;;
2404;SDS011;1213;43.206;27.922;2023-06-14T03:30:35;6.30;;;5.13;;
2404;SDS011;1213;43.206;27.922;2023-06-14T03:33:01;5.70;;;4.80;;
2404;SDS011;1213;43.206;27.922;2023-06-14T03:35:26;8.13;;;5.73;;
2404;SDS011;1213;43.206;27.922;2023-06-14T03:37:52;5.87;;;4.90;;
2404;SDS011;1213;43.206;27.922;2023-06-14T03:40:17;4.43;;;4.03;;
2404;SDS011;1213;43.206;27.922;2023-06-14T03:42:43;4.60;;;4.20;;
2404;SDS011;1213;43.206;27.922;2023-06-14T03:45:08;6.60;;;4.83;;
2404;SDS011;1213;43.206;27.922;2023-06-14T03:47:34;7.53;;;5.17;;
2404;SDS011;1213;43.206;27.922;2023-06-14T03:49:59;10.50;;;5.30;;
2404;SDS011;1213;43.206;27.922;2023-06-14T03:52:25;7.80;;;5.30;;
2404;SDS011;1213;43.206;27.922;2023-06-14T03:54:51;8.13;;;5.23;;
2404;SDS011;1213;43.206;27.922;2023-06-14T03:57:16;6.53;;;4.70;;
2404;SDS011;1213;43.206;27.922;2023-06-14T03:59:42;7.27;;;5.07;;
2404;SDS011;1213;43.206;27.922;2023-06-14T04:02:07;6.63;;;5.10;;
2404;SDS011;1213;43.206;27.922;2023-06-14T04:04:34;5.20;;;4.60;;
2404;SDS011;1213;43.206;27.922;2023-06-14T04:07:00;5.40;;;4.90;;
2404;SDS011;1213;43.206;27.922;2023-06-14T04:09:25;6.50;;;5.90;;
2404;SDS011;1213;43.206;27.922;2023-06-14T04:11:54;8.83;;;6.07;;
2404;SDS011;1213;43.206;27.922;2023-06-14T04:14:21;9.43;;;6.13;;
2404;SDS011;1213;43.206;27.922;2023-06-14T04:16:47;10.10;;;7.30;;
2404;SDS011;1213;43.206;27.922;2023-06-14T04:19:12;8.80;;;7.10;;
2404;SDS011;1213;43.206;27.922;2023-06-14T04:21:37;16.47;;;7.90;;
2404;SDS011;1213;43.206;27.922;2023-06-14T04:24:03;10.50;;;7.10;;
2404;SDS011;1213;43.206;27.922;2023-06-14T04:26:28;9.50;;;6.53;;
2404;SDS011;1213;43.206;27.922;2023-06-14T04:28:55;14.80;;;8.20;;
2404;SDS011;1213;43.206;27.922;2023-06-14T04:31:22;13.17;;;8.93;;
2404;SDS011;1213;43.206;27.922;2023-06-14T04:33:49;17.87;;;11.17;;
2404;SDS011;1213;43.206;27.922;2023-06-14T04:36:15;15.10;;;11.30;;
2404;SDS011;1213;43.206;27.922;2023-06-14T04:38:43;22.73;;;10.23;;
2404;SDS011;1213;43.206;27.922;2023-06-14T04:41:10;13.47;;;9.73;;
2404;SDS011;1213;43.206;27.922;2023-06-14T04:43:36;16.90;;;9.97;;
2404;SDS011;1213;43.206;27.922;2023-06-14T04:46:03;15.83;;;9.10;;
2404;SDS011;1213;43.206;27.922;2023-06-14T04:48:30;8.33;;;7.33;;
2404;SDS011;1213;43.206;27.922;2023-06-14T04:50:56;12.77;;;7.50;;
2404;SDS011;1213;43.206;27.922;2023-06-14T04:53:22;13.30;;;5.90;;
2404;SDS011;1213;43.206;27.922;2023-06-14T04:55:48;7.70;;;6.30;;
2404;SDS011;1213;43.206;27.922;2023-06-14T04:58:13;9.40;;;6.03;;
2404;SDS011;1213;43.206;27.922;2023-06-14T05:00:38;8.53;;;6.00;;
2404;SDS011;1213;43.206;27.922;2023-06-14T05:03:04;7.37;;;6.00;;
2404;SDS011;1213;43.206;27.922;2023-06-14T05:05:31;8.47;;;6.03;;
2404;SDS011;1213;43.206;27.922;2023-06-14T05:07:56;5.73;;;5.13;;
2404;SDS011;1213;43.206;27.922;2023-06-14T05:10:21;9.10;;;6.23;;
2404;SDS011;1213;43.206;27.922;2023-06-14T05:12:46;9.27;;;5.13;;
2404;SDS011;1213;43.206;27.922;2023-06-14T05:15:12;6.33;;;5.70;;
2404;SDS011;1213;43.206;27.922;2023-06-14T05:17:38;13.10;;;5.40;;
2404;SDS011;1213;43.206;27.922;2023-06-14T05:20:05;8.03;;;6.27;;
2404;SDS011;1213;43.206;27.922;2023-06-14T05:22:31;8.97;;;5.80;;
2404;SDS011;1213;43.206;27.922;2023-06-14T05:24:57;6.27;;;5.53;;
2404;SDS011;1213;43.206;27.922;2023-06-14T05:27:22;8.57;;;5.50;;
2404;SDS011;1213;43.206;27.922;2023-06-14T05:29:47;8.13;;;5.20;;
2404;SDS011;1213;43.206;27.922;2023-06-14T05:32:12;6.10;;;5.40;;
2404;SDS011;1213;43.206;27.922;2023-06-14T05:34:38;6.60;;;5.50;;
2404;SDS011;1213;43.206;27.922;2023-06-14T05:37:03;5.73;;;5.13;;
2404;SDS011;1213;43.206;27.922;2023-06-14T05:39:29;7.50;;;6.70;;
2404;SDS011;1213;43.206;27.922;2023-06-14T05:41:55;6.23;;;5.63;;
2404;SDS011;1213;43.206;27.922;2023-06-14T05:44:20;8.17;;;6.00;;
2404;SDS011;1213;43.206;27.922;2023-06-14T05:46:48;7.03;;;5.30;;
2404;SDS011;1213;43.206;27.922;2023-06-14T05:49:14;7.53;;;6.20;;
2404;SDS011;1213;43.206;27.922;2023-06-14T05:51:39;7.90;;;6.20;;
2404;SDS011;1213;43.206;27.922;2023-06-14T05:54:06;8.80;;;6.37;;
2404;SDS011;1213;43.206;27.922;2023-06-14T05:56:31;7.80;;;6.47;;
2404;SDS011;1213;43.206;27.922;2023-06-14T05:58:57;7.10;;;5.73;;
2404;SDS011;1213;43.206;27.922;2023-06-14T06:01:22;6.63;;;5.63;;
2404;SDS011;1213;43.206;27.922;2023-06-14T06:03:47;10.80;;;6.03;;
2404;SDS011;1213;43.206;27.922;2023-06-14T06:06:13;5.40;;;4.90;;
2404;SDS011;1213;43.206;27.922;2023-06-14T06:08:38;9.43;;;5.00;;
2404;SDS011;1213;43.206;27.922;2023-06-14T06:11:04;5.67;;;5.13;;
2404;SDS011;1213;43.206;27.922;2023-06-14T06:13:29;5.40;;;4.90;;
2404;SDS011;1213;43.206;27.922;2023-06-14T06:15:55;7.83;;;5.37;;
2404;SDS011;1213;43.206;27.922;2023-06-14T06:18:21;5.73;;;4.97;;
2404;SDS011;1213;43.206;27.922;2023-06-14T06:20:46;11.00;;;5.83;;
2404;SDS011;1213;43.206;27.922;2023-06-14T06:23:12;8.83;;;6.47;;
2404;SDS011;1213;43.206;27.922;2023-06-14T06:25:37;4.37;;;3.70;;
2404;SDS011;1213;43.206;27.922;2023-06-14T06:28:03;7.03;;;5.10;;
2404;SDS011;1213;43.206;27.922;2023-06-14T06:30:28;6.20;;;5.30;;
2404;SDS011;1213;43.206;27.922;2023-06-14T06:32:53;6.93;;;5.13;;
2404;SDS011;1213;43.206;27.922;2023-06-14T06:35:20;8.53;;;4.83;;
2404;SDS011;1213;43.206;27.922;2023-06-14T06:37:46;6.00;;;5.23;;
2404;SDS011;1213;43.206;27.922;2023-06-14T06:40:11;7.30;;;4.87;;
2404;SDS011;1213;43.206;27.922;2023-06-14T06:42:37;5.43;;;4.93;;
2404;SDS011;1213;43.206;27.922;2023-06-14T06:45:02;4.40;;;3.83;;
2404;SDS011;1213;43.206;27.922;2023-06-14T06:47:28;4.57;;;4.17;;
2404;SDS011;1213;43.206;27.922;2023-06-14T06:49:53;7.53;;;4.37;;
2404;SDS011;1213;43.206;27.922;2023-06-14T06:52:19;5.80;;;4.33;;
2404;SDS011;1213;43.206;27.922;2023-06-14T06:54:44;10.27;;;5.57;;
2404;SDS011;1213;43.206;27.922;2023-06-14T06:57:10;6.03;;;4.63;;
2404;SDS011;1213;43.206;27.922;2023-06-14T06:59:36;5.40;;;4.03;;
2404;SDS011;1213;43.206;27.922;2023-06-14T07:02:01;6.47;;;5.77;;
2404;SDS011;1213;43.206;27.922;2023-06-14T07:04:26;5.23;;;4.73;;
2404;SDS011;1213;43.206;27.922;2023-06-14T07:06:52;7.43;;;5.60;;
2404;SDS011;1213;43.206;27.922;2023-06-14T07:09:17;2.97;;;2.67;;
2404;SDS011;1213;43.206;27.922;2023-06-14T07:11:44;3.00;;;2.80;;
2404;SDS011;1213;43.206;27.922;2023-06-14T07:14:10;3.57;;;3.27;;
2404;SDS011;1213;43.206;27.922;2023-06-14T07:16:35;2.60;;;2.40;;
2404;SDS011;1213;43.206;27.922;2023-06-14T07:19:04;2.27;;;2.07;;
2404;SDS011;1213;43.206;27.922;2023-06-14T07:21:29;2.53;;;2.33;;
2404;SDS011;1213;43.206;27.922;2023-06-14T07:23:55;2.80;;;2.60;;
2404;SDS011;1213;43.206;27.922;2023-06-14T07:26:21;3.43;;;3.13;;
2404;SDS011;1213;43.206;27.922;2023-06-14T07:28:47;3.07;;;2.53;;
2404;SDS011;1213;43.206;27.922;2023-06-14T07:31:12;2.70;;;2.50;;
2404;SDS011;1213;43.206;27.922;2023-06-14T07:33:38;4.00;;;2.57;;
2404;SDS011;1213;43.206;27.922;2023-06-14T07:36:03;1.97;;;1.87;;
2404;SDS011;1213;43.206;27.922;2023-06-14T07:38:29;2.27;;;1.93;;
2404;SDS011;1213;43.206;27.922;2023-06-14T07:40:54;3.90;;;3.60;;
2404;SDS011;1213;43.206;27.922;2023-06-14T07:43:19;2.87;;;2.57;;
2404;SDS011;1213;43.206;27.922;2023-06-14T07:45:45;3.50;;;2.43;;
2404;SDS011;1213;43.206;27.922;2023-06-14T07:48:10;2.53;;;2.33;;
2404;SDS011;1213;43.206;27.922;2023-06-14T07:50:36;3.00;;;2.03;;
2404;SDS011;1213;43.206;27.922;2023-06-14T07:53:01;5.07;;;3.30;;
2404;SDS011;1213;43.206;27.922;2023-06-14T07:55:26;2.10;;;1.90;;
2404;SDS011;1213;43.206;27.922;2023-06-14T07:57:52;4.40;;;2.03;;
2404;SDS011;1213;43.206;27.922;2023-06-14T08:00:18;3.67;;;2.23;;
2404;SDS011;1213;43.206;27.922;2023-06-14T08:02:45;2.23;;;2.13;;
2404;SDS011;1213;43.206;27.922;2023-06-14T08:05:10;2.57;;;2.37;;
2404;SDS011;1213;43.206;27.922;2023-06-14T08:07:36;8.03;;;2.60;;
2404;SDS011;1213;43.206;27.922;2023-06-14T08:10:02;2.60;;;2.40;;
2404;SDS011;1213;43.206;27.922;2023-06-14T08:12:27;3.07;;;2.40;;
2404;SDS011;1213;43.206;27.922;2023-06-14T08:14:52;3.40;;;2.17;;
2404;SDS011;1213;43.206;27.922;2023-06-14T08:17:18;3.03;;;2.70;;
2404;SDS011;1213;43.206;27.922;2023-06-14T08:19:43;2.30;;;2.10;;
2404;SDS011;1213;43.206;27.922;2023-06-14T08:22:08;2.10;;;2.00;;
2404;SDS011;1213;43.206;27.922;2023-06-14T08:24:36;3.07;;;2.77;;
2404;SDS011;1213;43.206;27.922;2023-06-14T08:27:02;2.30;;;2.10;;
2404;SDS011;1213;43.206;27.922;2023-06-14T08:29:27;3.07;;;2.60;;
2404;SDS011;1213;43.206;27.922;2023-06-14T08:31:54;6.40;;;2.87;;
2404;SDS011;1213;43.206;27.922;2023-06-14T08:34:20;3.40;;;3.10;;
2404;SDS011;1213;43.206;27.922;2023-06-14T08:36:45;2.70;;;2.50;;
2404;SDS011;1213;43.206;27.922;2023-06-14T08:39:10;4.17;;;1.90;;
2404;SDS011;1213;43.206;27.922;2023-06-14T08:41:36;3.10;;;2.50;;
2404;SDS011;1213;43.206;27.922;2023-06-14T08:44:01;2.73;;;2.53;;
2404;SDS011;1213;43.206;27.922;2023-06-14T08:46:26;3.37;;;2.87;;
2404;SDS011;1213;43.206;27.922;2023-06-14T08:48:52;3.20;;;2.77;;
2404;SDS011;1213;43.206;27.922;2023-06-14T08:51:21;3.60;;;3.30;;
2404;SDS011;1213;43.206;27.922;2023-06-14T08:53:49;4.13;;;3.73;;
2404;SDS011;1213;43.206;27.922;2023-06-14T08:56:17;4.13;;;3.33;;
2404;SDS011;1213;43.206;27.922;2023-06-14T08:58:43;3.80;;;3.40;;
2404;SDS011;1213;43.206;27.922;2023-06-14T09:01:10;3.97;;;3.20;;
2404;SDS011;1213;43.206;27.922;2023-06-14T09:03:39;4.67;;;3.30;;
2404;SDS011;1213;43.206;27.922;2023-06-14T09:06:05;2.93;;;2.73;;
2404;SDS011;1213;43.206;27.922;2023-06-14T09:08:33;6.20;;;3.60;;
2404;SDS011;1213;43.206;27.922;2023-06-14T09:11:00;7.47;;;3.53;;
2404;SDS011;1213;43.206;27.922;2023-06-14T09:13:26;4.20;;;3.70;;
2404;SDS011;1213;43.206;27.922;2023-06-14T09:15:52;3.10;;;2.90;;
2404;SDS011;1213;43.206;27.922;2023-06-14T09:18:17;6.60;;;3.50;;
2404;SDS011;1213;43.206;27.922;2023-06-14T09:20:42;3.83;;;3.07;;
2404;SDS011;1213;43.206;27.922;2023-06-14T09:23:08;3.40;;;3.10;;
2404;SDS011;1213;43.206;27.922;2023-06-14T09:25:51;3.57;;;3.10;;
2404;SDS011;1213;43.206;27.922;2023-06-14T09:28:16;6.43;;;3.20;;
2404;SDS011;1213;43.206;27.922;2023-06-14T09:30:42;3.30;;;3.10;;
2404;SDS011;1213;43.206;27.922;2023-06-14T09:33:07;4.53;;;3.53;;
2404;SDS011;1213;43.206;27.922;2023-06-14T09:35:33;3.50;;;3.20;;
2404;SDS011;1213;43.206;27.922;2023-06-14T09:37:58;4.93;;;3.10;;
2404;SDS011;1213;43.206;27.922;2023-06-14T09:40:24;4.27;;;3.67;;
2404;SDS011;1213;43.206;27.922;2023-06-14T09:42:49;3.73;;;3.07;;
2404;SDS011;1213;43.206;27.922;2023-06-14T09:45:16;3.83;;;3.53;;
2404;SDS011;1213;43.206;27.922;2023-06-14T09:47:47;3.63;;;3.30;;
2404;SDS011;1213;43.206;27.922;2023-06-14T09:50:12;6.27;;;3.90;;
2404;SDS011;1213;43.206;27.922;2023-06-14T09:52:38;4.83;;;3.67;;
2404;SDS011;1213;43.206;27.922;2023-06-14T09:55:05;4.70;;;3.67;;
2404;SDS011;1213;43.206;27.922;2023-06-14T09:57:36;4.10;;;3.80;;
2404;SDS011;1213;43.206;27.922;2023-06-14T10:00:02;3.80;;;3.20;;
2404;SDS011;1213;43.206;27.922;2023-06-14T10:02:35;2.87;;;2.67;;
2404;SDS011;1213;43.206;27.922;2023-06-14T10:05:02;3.30;;;3.00;;
2404;SDS011;1213;43.206;27.922;2023-06-14T10:07:52;10.83;;;3.77;;
2404;SDS011;1213;43.206;27.922;2023-06-14T10:10:19;4.60;;;3.60;;
2404;SDS011;1213;43.206;27.922;2023-06-14T10:12:44;3.07;;;2.77;;
2404;SDS011;1213;43.206;27.922;2023-06-14T10:15:10;5.47;;;3.53;;
2404;SDS011;1213;43.206;27.922;2023-06-14T10:23:06;3.60;;;3.30;;
2404;SDS011;1213;43.206;27.922;2023-06-14T10:25:32;16.57;;;3.60;;
2404;SDS011;1213;43.206;27.922;2023-06-14T10:30:38;4.30;;;3.90;;
2404;SDS011;1213;43.206;27.922;2023-06-14T10:33:07;4.93;;;3.60;;
2404;SDS011;1213;43.206;27.922;2023-06-14T10:35:33;3.30;;;3.00;;
2404;SDS011;1213;43.206;27.922;2023-06-14T10:38:08;3.63;;;3.33;;
2404;SDS011;1213;43.206;27.922;2023-06-14T10:40:34;3.40;;;3.10;;
2404;SDS011;1213;43.206;27.922;2023-06-14T10:42:59;3.30;;;3.00;;
2404;SDS011;1213;43.206;27.922;2023-06-14T10:45:24;3.77;;;2.90;;
2404;SDS011;1213;43.206;27.922;2023-06-14T10:47:50;4.10;;;3.70;;
2404;SDS011;1213;43.206;27.922;2023-06-14T10:50:19;3.70;;;2.90;;
2404;SDS011;1213;43.206;27.922;2023-06-14T10:52:53;3.10;;;2.90;;
2404;SDS011;1213;43.206;27.922;2023-06-14T10:55:18;3.53;;;3.23;;
2404;SDS011;1213;43.206;27.922;2023-06-14T10:57:54;4.17;;;3.20;;
2404;SDS011;1213;43.206;27.922;2023-06-14T11:00:24;3.67;;;3.37;;
2404;SDS011;1213;43.206;27.922;2023-06-14T11:05:19;5.60;;;3.20;;
2404;SDS011;1213;43.206;27.922;2023-06-14T11:07:53;3.30;;;3.10;;
2404;SDS011;1213;43.206;27.922;2023-06-14T11:12:51;3.43;;;3.13;;
2404;SDS011;1213;43.206;27.922;2023-06-14T11:15:18;16.67;;;4.80;;
2404;SDS011;1213;43.206;27.922;2023-06-14T11:17:51;3.90;;;3.50;;
2404;SDS011;1213;43.206;27.922;2023-06-14T11:20:18;3.53;;;3.23;;
2404;SDS011;1213;43.206;27.922;2023-06-14T11:22:44;3.77;;;3.37;;
2404;SDS011;1213;43.206;27.922;2023-06-14T11:25:10;3.87;;;3.57;;
2404;SDS011;1213;43.206;27.922;2023-06-14T11:27:36;5.13;;;4.40;;
2404;SDS011;1213;43.206;27.922;2023-06-14T11:30:01;6.27;;;3.43;;
2404;SDS011;1213;43.206;27.922;2023-06-14T11:32:27;6.13;;;3.50;;
2404;SDS011;1213;43.206;27.922;2023-06-14T11:34:52;4.07;;;3.27;;
2404;SDS011;1213;43.206;27.922;2023-06-14T11:37:18;2.93;;;2.73;;
2404;SDS011;1213;43.206;27.922;2023-06-14T11:39:44;7.63;;;3.40;;
2404;SDS011;1213;43.206;27.922;2023-06-14T11:42:13;3.40;;;2.97;;
2404;SDS011;1213;43.206;27.922;2023-06-14T11:44:38;10.73;;;7.60;;
2404;SDS011;1213;43.206;27.922;2023-06-14T11:47:04;4.00;;;3.60;;
2404;SDS011;1213;43.206;27.922;2023-06-14T11:49:29;3.70;;;3.40;;
2404;SDS011;1213;43.206;27.922;2023-06-14T11:51:59;3.60;;;3.07;;
2404;SDS011;1213;43.206;27.922;2023-06-14T11:54:25;4.30;;;3.43;;
2404;SDS011;1213;43.206;27.922;2023-06-14T11:56:51;3.20;;;2.90;;
2404;SDS011;1213;43.206;27.922;2023-06-14T11:59:16;3.53;;;3.00;;
2404;SDS011;1213;43.206;27.922;2023-06-14T12:01:42;5.30;;;3.33;;
2404;SDS011;1213;43.206;27.922;2023-06-14T12:04:08;4.73;;;4.07;;
2404;SDS011;1213;43.206;27.922;2023-06-14T12:06:33;3.80;;;3.43;;
2404;SDS011;1213;43.206;27.922;2023-06-14T12:09:04;3.60;;;3.30;;
2404;SDS011;1213;43.206;27.922;2023-06-14T12:11:32;3.93;;;3.23;;
2404;SDS011;1213;43.206;27.922;2023-06-14T12:13:58;4.00;;;3.67;;
2404;SDS011;1213;43.206;27.922;2023-06-14T12:16:29;5.30;;;4.77;;
2404;SDS011;1213;43.206;27.922;2023-06-14T12:18:55;6.00;;;3.60;;
2404;SDS011;1213;43.206;27.922;2023-06-14T12:21:22;4.17;;;3.77;;
2404;SDS011;1213;43.206;27.922;2023-06-14T12:23:48;4.23;;;3.83;;
2404;SDS011;1213;43.206;27.922;2023-06-14T12:26:17;6.83;;;5.00;;
2404;SDS011;1213;43.206;27.922;2023-06-14T12:28:47;4.70;;;4.30;;
2404;SDS011;1213;43.206;27.922;2023-06-14T12:31:13;5.80;;;4.87;;
2404;SDS011;1213;43.206;27.922;2023-06-14T12:33:40;5.57;;;5.07;;
2404;SDS011;1213;43.206;27.922;2023-06-14T12:36:06;5.83;;;5.33;;
2404;SDS011;1213;43.206;27.922;2023-06-14T12:38:32;8.63;;;5.40;;
2404;SDS011;1213;43.206;27.922;2023-06-14T12:40:58;10.63;;;5.57;;
2404;SDS011;1213;43.206;27.922;2023-06-14T12:43:23;7.80;;;5.20;;
2404;SDS011;1213;43.206;27.922;2023-06-14T12:45:49;9.00;;;5.40;;
2404;SDS011;1213;43.206;27.922;2023-06-14T12:48:14;6.30;;;5.60;;
2404;SDS011;1213;43.206;27.922;2023-06-14T12:50:40;7.37;;;5.00;;
2404;SDS011;1213;43.206;27.922;2023-06-14T12:53:06;5.27;;;4.80;;
2404;SDS011;1213;43.206;27.922;2023-06-14T12:55:31;6.93;;;5.80;;
2404;SDS011;1213;43.206;27.922;2023-06-14T12:57:57;7.20;;;5.37;;
2404;SDS011;1213;43.206;27.922;2023-06-14T13:00:22;6.27;;;5.23;;
2404;SDS011;1213;43.206;27.922;2023-06-14T13:02:48;7.67;;;4.80;;
2404;SDS011;1213;43.206;27.922;2023-06-14T13:05:13;5.43;;;4.93;;
2404;SDS011;1213;43.206;27.922;2023-06-14T13:07:38;6.73;;;5.57;;
2404;SDS011;1213;43.206;27.922;2023-06-14T13:10:03;5.83;;;5.23;;
2404;SDS011;1213;43.206;27.922;2023-06-14T13:12:29;7.67;;;5.40;;
2404;SDS011;1213;43.206;27.922;2023-06-14T13:14:54;6.13;;;5.63;;
2404;SDS011;1213;43.206;27.922;2023-06-14T13:17:19;5.20;;;4.70;;
2404;SDS011;1213;43.206;27.922;2023-06-14T13:19:45;5.90;;;5.10;;
2404;SDS011;1213;43.206;27.922;2023-06-14T13:22:10;6.47;;;4.80;;
2404;SDS011;1213;43.206;27.922;2023-06-14T13:24:36;6.30;;;4.70;;
2404;SDS011;1213;43.206;27.922;2023-06-14T13:27:02;5.67;;;5.07;;
2404;SDS011;1213;43.206;27.922;2023-06-14T13:29:27;5.70;;;5.10;;
2404;SDS011;1213;43.206;27.922;2023-06-14T13:31:52;9.70;;;5.10;;
2404;SDS011;1213;43.206;27.922;2023-06-14T13:34:21;8.73;;;5.77;;
2404;SDS011;1213;43.206;27.922;2023-06-14T13:36:46;7.70;;;4.73;;
2404;SDS011;1213;43.206;27.922;2023-06-14T13:39:13;5.97;;;5.07;;
2404;SDS011;1213;43.206;27.922;2023-06-14T13:41:39;6.63;;;4.50;;
2404;SDS011;1213;43.206;27.922;2023-06-14T13:44:04;5.57;;;5.00;;
2404;SDS011;1213;43.206;27.922;2023-06-14T13:46:30;5.13;;;4.63;;
2404;SDS011;1213;43.206;27.922;2023-06-14T13:48:56;5.57;;;4.87;;
2404;SDS011;1213;43.206;27.922;2023-06-14T13:51:22;5.80;;;5.30;;
2404;SDS011;1213;43.206;27.922;2023-06-14T13:53:49;5.57;;;5.07;;
2404;SDS011;1213;43.206;27.922;2023-06-14T13:56:15;7.00;;;6.40;;
2404;SDS011;1213;43.206;27.922;2023-06-14T13:58:40;5.53;;;5.13;;
2404;SDS011;1213;43.206;27.922;2023-06-14T14:01:06;6.03;;;5.50;;
2404;SDS011;1213;43.206;27.922;2023-06-14T14:03:32;6.57;;;5.90;;
2404;SDS011;1213;43.206;27.922;2023-06-14T14:05:58;7.50;;;5.60;;
2404;SDS011;1213;43.206;27.922;2023-06-14T14:08:24;5.70;;;5.20;;
2404;SDS011;1213;43.206;27.922;2023-06-14T14:10:49;10.67;;;6.50;;
2404;SDS011;1213;43.206;27.922;2023-06-14T14:13:15;9.33;;;7.07;;
2404;SDS011;1213;43.206;27.922;2023-06-14T14:15:40;7.23;;;6.40;;
2404;SDS011;1213;43.206;27.922;2023-06-14T14:18:05;12.60;;;5.83;;
2404;SDS011;1213;43.206;27.922;2023-06-14T14:20:31;7.33;;;5.90;;
2404;SDS011;1213;43.206;27.922;2023-06-14T14:22:56;6.47;;;5.87;;
2404;SDS011;1213;43.206;27.922;2023-06-14T14:25:21;9.57;;;7.47;;
2404;SDS011;1213;43.206;27.922;2023-06-14T14:27:47;11.03;;;5.90;;
2404;SDS011;1213;43.206;27.922;2023-06-14T14:30:13;7.83;;;6.40;;
2404;SDS011;1213;43.206;27.922;2023-06-14T14:32:39;8.83;;;5.70;;
2404;SDS011;1213;43.206;27.922;2023-06-14T14:35:05;8.83;;;5.53;;
2404;SDS011;1213;43.206;27.922;2023-06-14T14:37:31;6.10;;;5.50;;
2404;SDS011;1213;43.206;27.922;2023-06-14T14:39:56;9.30;;;5.03;;
2404;SDS011;1213;43.206;27.922;2023-06-14T14:42:21;6.77;;;6.10;;
2404;SDS011;1213;43.206;27.922;2023-06-14T14:44:47;8.37;;;5.53;;
2404;SDS011;1213;43.206;27.922;2023-06-14T14:47:12;6.83;;;5.50;;
2404;SDS011;1213;43.206;27.922;2023-06-14T14:49:37;11.40;;;7.67;;
2404;SDS011;1213;43.206;27.922;2023-06-14T14:52:03;7.27;;;6.57;;
2404;SDS011;1213;43.206;27.922;2023-06-14T14:54:28;9.30;;;7.00;;
2404;SDS011;1213;43.206;27.922;2023-06-14T14:56:54;7.40;;;6.30;;
2404;SDS011;1213;43.206;27.922;2023-06-14T14:59:19;6.77;;;6.07;;
2404;SDS011;1213;43.206;27.922;2023-06-14T15:01:46;6.77;;;5.57;;
2404;SDS011;1213;43.206;27.922;2023-06-14T15:04:12;6.10;;;5.50;;
2404;SDS011;1213;43.206;27.922;2023-06-14T15:06:37;10.07;;;7.00;;
2404;SDS011;1213;43.206;27.922;2023-06-14T15:09:05;7.03;;;6.30;;